createdAt,value
2022-12-07T00:00:28.308Z,12.60
2022-12-07T00:03:02.108Z,12.77
2022-12-07T00:05:36.301Z,11.60
2022-12-07T00:08:11.637Z,11.53
2022-12-07T00:10:45.704Z,11.97
2022-12-07T00:13:19.512Z,12.67
2022-12-07T00:15:53.082Z,12.53
2022-12-07T00:18:27.908Z,11.53
2022-12-07T00:21:06.117Z,11.07
2022-12-07T00:23:42.825Z,10.80
2022-12-07T00:26:20.263Z,10.40
2022-12-07T00:28:56.891Z,10.03
2022-12-07T00:31:36.202Z,10.03
2022-12-07T00:34:15.236Z,10.17
2022-12-07T00:36:49.752Z,10.20
2022-12-07T00:39:25.155Z,10.83
2022-12-07T00:41:58.849Z,10.73
2022-12-07T00:44:33.840Z,11.10
2022-12-07T00:47:07.803Z,11.53
2022-12-07T00:49:41.383Z,10.23
2022-12-07T00:52:17.824Z,11.37
2022-12-07T00:54:53.308Z,11.33
2022-12-07T00:57:27.723Z,11.23
2022-12-07T01:00:02.439Z,12.13
2022-12-07T01:02:36.884Z,13.13
2022-12-07T01:05:12.954Z,14.53
2022-12-07T01:07:47.771Z,15.70
2022-12-07T01:10:23.524Z,14.90
2022-12-07T01:12:57.512Z,16.00
2022-12-07T01:15:31.446Z,15.70
2022-12-07T01:18:06.180Z,17.27
2022-12-07T01:20:40.204Z,17.30
2022-12-07T01:23:14.243Z,17.10
2022-12-07T01:25:57.980Z,17.17
2022-12-07T01:28:32.634Z,18.03
2022-12-07T01:31:11.016Z,17.23
2022-12-07T01:33:47.780Z,16.97
2022-12-07T01:36:25.332Z,18.47
2022-12-07T01:39:01.794Z,17.90
2022-12-07T01:41:41.737Z,18.13
2022-12-07T01:44:25.039Z,17.10
2022-12-07T01:47:01.472Z,17.67
2022-12-07T01:49:40.676Z,19.40
2022-12-07T01:52:21.236Z,17.63
2022-12-07T01:55:01.189Z,16.27
2022-12-07T01:57:42.473Z,16.90
2022-12-07T02:00:17.128Z,16.83
2022-12-07T02:02:57.819Z,15.30
2022-12-07T02:05:32.965Z,15.00
2022-12-07T02:08:08.643Z,14.57
2022-12-07T02:10:43.274Z,14.70
2022-12-07T02:13:24.169Z,15.40
2022-12-07T02:16:22.285Z,13.80
2022-12-07T02:19:33.422Z,13.60
2022-12-07T02:22:29.431Z,12.73
2022-12-07T02:25:19.434Z,11.80
2022-12-07T02:28:01.764Z,14.23
2022-12-07T02:30:46.834Z,12.77
2022-12-07T02:33:28.603Z,14.43
2022-12-07T02:36:09.518Z,12.40
2022-12-07T02:38:53.403Z,13.33
2022-12-07T02:41:34.557Z,14.83
2022-12-07T02:44:15.308Z,14.90
2022-12-07T02:46:58.424Z,14.83
2022-12-07T02:49:33.283Z,14.97
2022-12-07T02:52:07.543Z,14.80
2022-12-07T02:54:42.247Z,14.57
2022-12-07T02:57:53.646Z,15.83
2022-12-07T03:00:27.806Z,13.80
2022-12-07T03:03:12.838Z,14.70
2022-12-07T03:06:09.347Z,14.57
2022-12-07T03:08:56.361Z,14.53
2022-12-07T03:11:50.222Z,12.90
2022-12-07T03:14:33.101Z,13.97
2022-12-07T03:17:15.383Z,12.80
2022-12-07T03:19:55.933Z,13.43
2022-12-07T03:22:36.787Z,13.00
2022-12-07T03:25:14.580Z,13.30
2022-12-07T03:27:57.233Z,11.93
2022-12-07T03:30:38.094Z,12.53
2022-12-07T03:33:19.669Z,12.37
2022-12-07T03:36:03.401Z,12.07
2022-12-07T03:38:44.908Z,11.87
2022-12-07T03:41:26.223Z,12.30
2022-12-07T03:44:01.049Z,12.83
2022-12-07T03:46:45.308Z,11.87
2022-12-07T03:49:29.501Z,13.60
2022-12-07T03:52:19.202Z,12.90
2022-12-07T03:55:00.924Z,11.77
2022-12-07T03:57:38.973Z,11.30
2022-12-07T04:00:16.269Z,12.17
2022-12-07T04:02:50.545Z,11.80
2022-12-07T04:05:26.438Z,11.47
2022-12-07T04:08:02.003Z,12.27
2022-12-07T04:10:35.952Z,12.33
2022-12-07T04:13:11.877Z,12.13
2022-12-07T04:15:45.807Z,13.20
2022-12-07T04:18:20.811Z,11.87
2022-12-07T04:20:54.651Z,12.73
2022-12-07T04:23:29.797Z,12.43
2022-12-07T04:26:03.765Z,11.67
2022-12-07T04:28:37.658Z,13.00
2022-12-07T04:31:13.613Z,11.73
2022-12-07T04:33:47.431Z,12.30
2022-12-07T04:36:22.233Z,10.77
2022-12-07T04:38:57.902Z,11.07
2022-12-07T04:41:34.902Z,10.60
2022-12-07T04:44:09.522Z,11.03
2022-12-07T04:46:44.388Z,11.83
2022-12-07T04:49:19.330Z,11.23
2022-12-07T04:51:54.166Z,11.23
2022-12-07T04:54:30.850Z,11.60
2022-12-07T04:57:04.863Z,10.40
2022-12-07T04:59:43.803Z,11.47
2022-12-07T05:02:19.121Z,9.80
2022-12-07T05:04:52.894Z,10.13
2022-12-07T05:07:26.543Z,10.10
2022-12-07T05:10:02.044Z,9.40
2022-12-07T05:12:37.093Z,10.43
2022-12-07T05:15:12.217Z,9.73
2022-12-07T05:17:45.990Z,9.43
2022-12-07T05:20:19.848Z,9.60
2022-12-07T05:22:53.777Z,8.33
2022-12-07T05:25:29.451Z,10.10
2022-12-07T05:28:03.694Z,10.00
2022-12-07T05:30:38.090Z,9.80
2022-12-07T05:33:11.969Z,9.53
2022-12-07T05:35:45.713Z,9.47
2022-12-07T05:38:19.669Z,10.00
2022-12-07T05:40:56.754Z,9.73
2022-12-07T05:43:30.705Z,9.23
2022-12-07T05:46:04.400Z,9.93
2022-12-07T05:48:38.512Z,10.30
2022-12-07T05:51:12.148Z,11.00
2022-12-07T05:53:46.132Z,10.50
2022-12-07T05:56:21.974Z,10.07
2022-12-07T05:59:13.643Z,9.57
2022-12-07T06:01:48.597Z,9.77
2022-12-07T06:04:23.274Z,10.03
2022-12-07T06:06:57.971Z,9.63
2022-12-07T06:09:32.655Z,8.63
2022-12-07T06:12:26.780Z,8.90
2022-12-07T06:15:01.302Z,8.20
2022-12-07T06:17:37.547Z,9.00
2022-12-07T06:20:11.887Z,8.90
2022-12-07T06:22:46.017Z,8.97
2022-12-07T06:25:20.006Z,7.43
2022-12-07T06:27:56.697Z,7.63
2022-12-07T06:30:30.139Z,7.03
2022-12-07T06:33:03.989Z,8.53
2022-12-07T06:35:38.003Z,7.27
2022-12-07T06:38:11.614Z,8.00
2022-12-07T06:40:45.429Z,7.27
2022-12-07T06:43:20.642Z,6.93
2022-12-07T06:45:54.786Z,7.63
2022-12-07T06:48:29.705Z,6.60
2022-12-07T06:51:03.546Z,7.23
2022-12-07T06:53:37.731Z,6.57
2022-12-07T06:56:11.497Z,6.43
2022-12-07T06:58:47.158Z,6.93
2022-12-07T07:01:21.893Z,7.40
2022-12-07T07:03:55.826Z,6.73
2022-12-07T07:06:30.333Z,7.10
2022-12-07T07:09:05.973Z,6.87
2022-12-07T07:11:40.083Z,6.53
2022-12-07T07:14:20.314Z,7.53
2022-12-07T07:16:54.531Z,6.47
2022-12-07T07:19:29.054Z,6.83
2022-12-07T07:22:02.976Z,6.83
2022-12-07T07:24:36.916Z,5.73
2022-12-07T07:27:11.205Z,6.23
2022-12-07T07:29:46.747Z,6.60
2022-12-07T07:32:20.928Z,6.53
2022-12-07T07:34:54.840Z,6.00
2022-12-07T07:37:29.117Z,6.63
2022-12-07T07:40:03.161Z,6.20
2022-12-07T07:42:37.344Z,6.40
2022-12-07T07:45:13.617Z,5.80
2022-12-07T07:47:47.752Z,6.50
2022-12-07T07:50:22.728Z,6.30
2022-12-07T07:52:56.714Z,6.30
2022-12-07T07:55:30.548Z,6.13
2022-12-07T07:58:04.461Z,5.93
2022-12-07T08:00:40.194Z,6.73
2022-12-07T08:03:13.881Z,6.67
2022-12-07T08:05:47.763Z,6.17
2022-12-07T08:08:21.892Z,6.23
2022-12-07T08:10:55.920Z,7.17
2022-12-07T08:13:31.635Z,6.90
2022-12-07T08:16:11.276Z,7.03
2022-12-07T08:18:45.883Z,6.23
2022-12-07T08:21:20.057Z,6.70
2022-12-07T08:23:54.257Z,6.87
2022-12-07T08:26:28.377Z,7.00
2022-12-07T08:29:02.940Z,6.40
2022-12-07T08:31:38.175Z,6.43
2022-12-07T08:34:15.122Z,6.73
2022-12-07T08:36:49.787Z,6.67
2022-12-07T08:39:32.942Z,6.23
2022-12-07T08:42:07.440Z,6.70
2022-12-07T08:44:41.934Z,6.10
2022-12-07T08:47:17.382Z,6.03
2022-12-07T08:49:56.080Z,6.97
2022-12-07T08:52:31.311Z,6.47
2022-12-07T08:55:08.056Z,6.40
2022-12-07T08:57:43.751Z,6.17
2022-12-07T09:00:19.600Z,6.30
2022-12-07T09:02:56.204Z,6.03
2022-12-07T09:05:29.905Z,6.50
2022-12-07T09:08:04.673Z,6.57
2022-12-07T09:10:38.821Z,6.27
2022-12-07T09:13:12.757Z,5.73
2022-12-07T09:15:46.969Z,6.33
2022-12-07T09:18:22.129Z,6.13
2022-12-07T09:20:57.309Z,6.20
2022-12-07T09:23:30.950Z,6.00
2022-12-07T09:26:10.582Z,6.27
2022-12-07T09:28:44.622Z,5.73
2022-12-07T09:31:23.922Z,6.73
2022-12-07T09:34:02.893Z,7.20
2022-12-07T09:36:38.068Z,7.37
2022-12-07T09:39:12.241Z,7.97
2022-12-07T09:41:48.344Z,8.23
2022-12-07T09:44:28.054Z,7.07
2022-12-07T09:47:02.218Z,6.70
2022-12-07T09:49:37.824Z,7.37
2022-12-07T09:52:28.087Z,7.50
2022-12-07T09:55:03.497Z,7.77
2022-12-07T09:57:38.452Z,6.53
2022-12-07T10:00:18.021Z,7.23
2022-12-07T10:02:58.759Z,6.77
2022-12-07T10:05:39.942Z,7.43
2022-12-07T10:08:17.147Z,6.90
2022-12-07T10:10:57.028Z,6.20
2022-12-07T10:13:39.457Z,5.83
2022-12-07T10:16:40.214Z,5.90
2022-12-07T10:19:26.738Z,6.27
2022-12-07T10:22:19.464Z,5.83
2022-12-07T10:24:53.327Z,5.97
2022-12-07T10:27:33.746Z,5.50
2022-12-07T10:30:18.194Z,5.37
2022-12-07T10:32:52.506Z,5.63
2022-12-07T10:35:30.810Z,5.63
2022-12-07T10:38:19.459Z,5.40
2022-12-07T10:41:08.220Z,5.10
2022-12-07T10:43:52.382Z,5.50
2022-12-07T10:46:52.824Z,6.00
2022-12-07T10:50:20.186Z,5.40
2022-12-07T10:53:38.887Z,5.43
2022-12-07T10:56:42.130Z,5.23
2022-12-07T11:00:10.201Z,5.07
2022-12-07T11:03:25.648Z,4.97
2022-12-07T11:06:14.631Z,5.40
2022-12-07T11:09:06.909Z,4.97
2022-12-07T11:11:48.734Z,4.57
2022-12-07T11:14:30.943Z,5.00
2022-12-07T11:17:17.453Z,4.43
2022-12-07T11:20:07.404Z,4.17
2022-12-07T11:22:53.181Z,4.30
2022-12-07T11:25:37.842Z,4.17
2022-12-07T11:28:31.593Z,3.73
2022-12-07T11:31:25.793Z,3.73
2022-12-07T11:34:15.507Z,4.20
2022-12-07T11:36:55.736Z,4.20
2022-12-07T11:39:39.271Z,3.50
2022-12-07T11:42:23.498Z,3.40
2022-12-07T11:45:04.505Z,3.80
2022-12-07T11:47:49.453Z,3.13
2022-12-07T11:50:36.914Z,3.43
2022-12-07T11:53:22.986Z,3.93
2022-12-07T11:56:04.817Z,3.70
2022-12-07T12:01:54.616Z,3.50
2022-12-07T12:04:40.972Z,3.93
2022-12-07T12:10:25.249Z,4.00
2022-12-07T12:17:26.681Z,3.60
2022-12-07T12:20:16.677Z,3.63
2022-12-07T12:23:00.112Z,3.40
2022-12-07T12:25:43.991Z,4.13
2022-12-07T12:28:32.542Z,3.90
2022-12-07T12:31:15.562Z,3.27
2022-12-07T12:33:54.421Z,3.03
2022-12-07T12:36:45.832Z,3.13
2022-12-07T12:39:22.027Z,2.53
2022-12-07T12:42:09.167Z,2.50
2022-12-07T12:45:07.358Z,2.43
2022-12-07T12:48:02.834Z,2.90
2022-12-07T12:50:39.829Z,2.90
2022-12-07T12:53:24.337Z,3.10
2022-12-07T12:56:33.552Z,2.73
2022-12-07T12:59:27.677Z,2.70
2022-12-07T13:02:24.447Z,3.37
2022-12-07T13:05:00.861Z,3.60
2022-12-07T13:08:00.827Z,3.87
2022-12-07T13:10:46.999Z,3.70
2022-12-07T13:13:36.907Z,3.63
2022-12-07T13:16:43.641Z,3.53
2022-12-07T13:20:17.483Z,3.70
2022-12-07T13:23:02.069Z,3.77
2022-12-07T13:25:53.738Z,3.80
2022-12-07T13:28:37.608Z,3.87
2022-12-07T13:31:37.826Z,3.80
2022-12-07T13:34:35.209Z,3.30
2022-12-07T13:37:36.708Z,3.27
2022-12-07T13:40:23.935Z,4.17
2022-12-07T13:43:03.368Z,3.70
2022-12-07T13:45:52.990Z,5.20
2022-12-07T13:48:34.882Z,4.57
2022-12-07T13:51:22.537Z,5.20
2022-12-07T13:53:58.953Z,4.40
2022-12-07T13:56:39.317Z,4.60
2022-12-07T13:59:19.622Z,4.47
2022-12-07T14:01:55.967Z,4.30
2022-12-07T14:04:37.887Z,4.17
2022-12-07T14:07:27.853Z,3.80
2022-12-07T14:10:04.212Z,3.00
2022-12-07T14:13:31.326Z,3.87
2022-12-07T14:16:20.311Z,3.43
2022-12-07T14:18:54.507Z,2.97
2022-12-07T14:21:30.505Z,3.43
2022-12-07T14:24:21.622Z,3.27
2022-12-07T14:26:55.523Z,3.37
2022-12-07T14:29:35.530Z,3.77
2022-12-07T14:32:32.166Z,3.03
2022-12-07T14:35:14.194Z,2.90
2022-12-07T14:37:51.076Z,3.27
2022-12-07T14:40:28.236Z,3.73
2022-12-07T14:43:05.550Z,3.53
2022-12-07T14:45:41.769Z,3.43
2022-12-07T14:54:17.603Z,3.10
2022-12-07T14:56:52.535Z,2.80
2022-12-07T14:59:26.495Z,3.03
2022-12-07T15:02:01.861Z,3.03
2022-12-07T15:04:36.089Z,3.00
2022-12-07T15:07:20.638Z,3.17
2022-12-07T15:09:57.276Z,3.33
2022-12-07T15:12:31.308Z,2.70
2022-12-07T15:15:05.908Z,2.50
2022-12-07T15:17:41.680Z,2.77
2022-12-07T15:20:19.454Z,2.43
2022-12-07T15:22:53.333Z,2.80
2022-12-07T15:25:26.898Z,2.50
2022-12-07T15:28:00.800Z,2.50
2022-12-07T15:30:34.831Z,2.60
2022-12-07T15:33:10.468Z,3.10
2022-12-07T15:35:45.333Z,2.40
2022-12-07T15:38:33.368Z,2.50
2022-12-07T15:41:13.087Z,2.97
2022-12-07T15:44:07.249Z,2.63
2022-12-07T15:46:44.271Z,2.77
2022-12-07T15:49:21.380Z,2.90
2022-12-07T15:51:55.344Z,2.70
2022-12-07T15:54:31.591Z,10.97
2022-12-07T15:57:05.308Z,7.80
2022-12-07T15:59:38.958Z,4.57
2022-12-07T16:02:13.598Z,3.40
2022-12-07T16:04:49.195Z,3.00
2022-12-07T16:07:23.089Z,2.83
2022-12-07T16:09:56.727Z,3.00
2022-12-07T16:12:30.299Z,3.47
2022-12-07T16:15:04.593Z,3.50
2022-12-07T16:17:38.581Z,3.37
2022-12-07T16:20:15.523Z,2.87
2022-12-07T16:22:57.282Z,3.40
2022-12-07T16:25:31.234Z,2.70
2022-12-07T16:28:04.855Z,2.77
2022-12-07T16:30:38.745Z,2.63
2022-12-07T16:33:12.804Z,2.53
2022-12-07T16:35:48.433Z,2.77
2022-12-07T16:38:21.804Z,2.73
2022-12-07T16:40:56.175Z,3.23
2022-12-07T16:43:30.185Z,2.70
2022-12-07T16:46:05.852Z,2.83
2022-12-07T16:48:42.312Z,2.87
2022-12-07T16:51:17.894Z,2.97
2022-12-07T16:53:54.832Z,3.20
2022-12-07T16:56:30.191Z,3.07
2022-12-07T16:59:03.969Z,3.00
2022-12-07T17:25:11.377Z,3.00
2022-12-07T17:28:17.625Z,3.13
2022-12-07T17:30:58.625Z,3.20
2022-12-07T17:33:35.357Z,3.87
2022-12-07T17:36:49.667Z,3.37
2022-12-07T17:39:26.586Z,2.67
2022-12-07T17:42:18.624Z,3.20
2022-12-07T17:45:19.063Z,3.23
2022-12-07T17:47:55.532Z,3.10
2022-12-07T17:50:48.463Z,3.10
2022-12-07T17:53:23.577Z,3.27
2022-12-07T17:56:39.454Z,3.03
2022-12-07T17:59:17.093Z,4.43
2022-12-07T18:01:51.993Z,6.03
2022-12-07T18:04:58.328Z,4.23
2022-12-07T18:08:30.471Z,3.70
2022-12-07T18:11:07.231Z,3.00
2022-12-07T18:13:44.649Z,2.77
2022-12-07T18:16:30.085Z,3.47
2022-12-07T18:20:12.338Z,2.93
2022-12-07T18:22:47.054Z,2.87
2022-12-07T18:25:25.666Z,2.93
2022-12-07T18:28:10.834Z,3.10
2022-12-07T18:31:36.135Z,3.10
2022-12-07T18:34:15.491Z,3.40
2022-12-07T18:36:54.012Z,3.50
2022-12-07T18:39:34.673Z,2.93
2022-12-07T18:43:17.386Z,3.63
2022-12-07T18:49:26.352Z,3.40
2022-12-07T18:52:05.083Z,3.07
2022-12-07T18:54:44.214Z,3.10
2022-12-07T18:57:55.192Z,3.30
2022-12-07T19:00:34.820Z,3.33
2022-12-07T19:03:12.608Z,3.50
2022-12-07T19:06:11.318Z,3.67
2022-12-07T19:08:45.355Z,3.67
2022-12-07T19:11:43.978Z,3.97
2022-12-07T19:14:35.272Z,3.70
2022-12-07T19:17:13.521Z,3.37
2022-12-07T19:19:51.007Z,4.33
2022-12-07T19:22:31.937Z,3.97
2022-12-07T19:25:28.876Z,4.20
2022-12-07T19:31:13.357Z,5.43
2022-12-07T19:33:52.963Z,6.23
2022-12-07T19:39:36.313Z,11.57
2022-12-07T19:42:11.043Z,8.47
2022-12-07T19:44:45.456Z,6.20
2022-12-07T19:47:23.499Z,5.73
2022-12-07T19:49:58.013Z,6.33
2022-12-07T19:52:36.457Z,5.63
2022-12-07T19:55:15.899Z,6.10
2022-12-07T19:57:49.977Z,5.53
2022-12-07T20:00:24.608Z,7.43
2022-12-07T20:03:05.298Z,6.33
2022-12-07T20:05:39.127Z,6.17
2022-12-07T20:08:13.176Z,5.53
2022-12-07T20:10:59.812Z,6.07
2022-12-07T20:13:32.985Z,6.47
2022-12-07T20:16:19.458Z,7.93
2022-12-07T20:18:57.841Z,6.13
2022-12-07T20:21:32.823Z,6.60
2022-12-07T20:24:11.452Z,8.27
2022-12-07T20:26:50.067Z,7.17
2022-12-07T20:32:21.117Z,9.00
2022-12-07T20:34:55.409Z,7.67
2022-12-07T20:37:29.867Z,7.07
2022-12-07T20:40:14.318Z,6.90
2022-12-07T20:42:50.492Z,7.67
2022-12-07T20:45:25.221Z,7.20
2022-12-07T20:48:04.329Z,7.30
2022-12-07T20:50:42.125Z,7.67
2022-12-07T20:53:19.330Z,8.00
2022-12-07T20:55:56.397Z,7.73
2022-12-07T20:58:32.074Z,7.20
2022-12-07T21:01:06.599Z,7.83
2022-12-07T21:03:41.513Z,8.10
2022-12-07T21:06:18.200Z,8.27
2022-12-07T21:08:57.145Z,7.80
2022-12-07T21:11:49.202Z,8.03
2022-12-07T21:14:25.929Z,7.27
2022-12-07T21:17:07.750Z,7.43
2022-12-07T21:19:42.945Z,7.87
2022-12-07T21:22:17.596Z,8.47
2022-12-07T21:24:53.981Z,7.53
2022-12-07T21:27:27.934Z,9.67
2022-12-07T21:30:03.607Z,9.93
2022-12-07T21:32:39.090Z,12.03
2022-12-07T21:35:13.340Z,11.33
2022-12-07T21:37:47.560Z,10.93
2022-12-07T21:40:21.635Z,10.90
2022-12-07T21:43:00.250Z,10.40
2022-12-07T21:45:36.405Z,11.33
2022-12-07T21:48:11.453Z,10.50
2022-12-07T21:50:45.244Z,10.80
2022-12-07T21:53:19.501Z,10.13
2022-12-07T21:55:53.509Z,10.73
2022-12-07T21:58:28.237Z,11.07
2022-12-07T22:01:16.575Z,10.33
2022-12-07T22:03:52.105Z,10.33
2022-12-07T22:06:28.463Z,10.60
2022-12-07T22:09:12.358Z,10.73
2022-12-07T22:11:48.000Z,9.07
2022-12-07T22:14:39.429Z,9.97
2022-12-07T22:17:22.352Z,10.17
2022-12-07T22:19:56.983Z,9.17
2022-12-07T22:22:34.546Z,9.90
2022-12-07T22:25:13.185Z,9.30
2022-12-07T22:27:47.401Z,9.17
2022-12-07T22:30:23.395Z,8.40
2022-12-07T22:32:59.176Z,8.40
2022-12-07T22:35:42.762Z,8.77
2022-12-07T22:38:20.579Z,8.10
2022-12-07T22:40:55.286Z,8.17
2022-12-07T22:43:29.826Z,7.63
2022-12-07T22:46:06.194Z,7.43
2022-12-07T22:48:42.087Z,7.57
2022-12-07T22:51:24.589Z,6.90
2022-12-07T22:54:02.739Z,7.23
2022-12-07T22:56:39.084Z,6.37
2022-12-07T22:59:16.214Z,7.33
2022-12-07T23:01:50.818Z,6.70
2022-12-07T23:04:26.503Z,6.70
2022-12-07T23:07:01.585Z,6.77
2022-12-07T23:09:38.843Z,5.73
2022-12-07T23:12:45.233Z,6.70
2022-12-07T23:15:21.385Z,6.30
2022-12-07T23:17:55.525Z,6.00
2022-12-07T23:20:31.952Z,6.87
2022-12-07T23:23:08.133Z,7.17
2022-12-07T23:25:41.946Z,7.27
2022-12-07T23:28:15.639Z,7.57
2022-12-07T23:30:49.634Z,8.07
2022-12-07T23:33:24.518Z,7.57
2022-12-07T23:36:10.675Z,7.97
2022-12-07T23:38:51.369Z,8.63
2022-12-07T23:41:29.013Z,8.20
2022-12-07T23:44:07.586Z,8.57
2022-12-07T23:46:42.216Z,8.20
2022-12-07T23:49:24.254Z,8.57
2022-12-07T23:52:00.314Z,9.67
2022-12-07T23:54:34.219Z,10.57
2022-12-07T23:57:09.390Z,9.73
2022-12-07T23:59:44.286Z,9.80
